Time;durP1;ratioP1;P1;durP2;ratioP2;P2;SDS_P1;SDS_P2;PMS_P1;PMS_P2;Temp;Humidity;BMP_temperature;BMP_pressure;BME280_temperature;BME280_humidity;BME280_pressure;Samples;Min_cycle;Max_cycle;Signal;HPM_P1;HPM_P2
2022/01/23 00:00:07;;;;;;;41.95;25.55;;;;;;;;;;5018004;28;20493;-71
2022/01/23 00:02:35;;;;;;;37.10;22.73;;;;;;;;;;5017471;28;20026;-71
2022/01/23 00:05:06;;;;;;;37.50;21.63;;;;;;;;;;5017525;28;20030;-71
2022/01/23 00:07:33;;;;;;;29.58;16.88;;;;;;;;;;5017765;28;20511;-71
2022/01/23 00:09:59;;;;;;;34.78;16.83;;;;;;;;;;5017341;28;20060;-71
2022/01/23 00:12:28;;;;;;;32.47;20.23;;;;;;;;;;5017995;28;20029;-71
2022/01/23 00:17:39;;;;;;;38.45;22.25;;;;;;;;;;5024377;28;20032;-71
2022/01/23 00:20:12;;;;;;;25.08;14.50;;;;;;;;;;5023251;28;20125;-71
2022/01/23 00:30:40;;;;;;;29.70;16.80;;;;;;;;;;5017564;28;20116;-71
2022/01/23 00:33:07;;;;;;;28.50;16.20;;;;;;;;;;5017919;28;20124;-71
2022/01/23 00:35:34;;;;;;;29.50;15.63;;;;;;;;;;5017433;28;20040;-71
2022/01/23 00:38:01;;;;;;;27.77;16.20;;;;;;;;;;5017657;28;20145;-71
2022/01/23 00:40:28;;;;;;;30.55;16.45;;;;;;;;;;5016415;28;20393;-71
2022/01/23 00:42:55;;;;;;;28.48;15.88;;;;;;;;;;5017308;28;20465;-71
2022/01/23 00:47:56;;;;;;;30.05;14.57;;;;;;;;;;5017525;28;20577;-71
2022/01/23 00:50:23;;;;;;;25.98;16.02;;;;;;;;;;5017600;28;20037;-71
2022/01/23 00:52:49;;;;;;;27.85;15.50;;;;;;;;;;5017399;28;20053;-71
2022/01/23 00:55:15;;;;;;;29.90;16.42;;;;;;;;;;5015678;28;20113;-71
2022/01/23 00:57:41;;;;;;;30.23;17.20;;;;;;;;;;5017635;28;20045;-71
2022/01/23 01:00:08;;;;;;;31.05;17.20;;;;;;;;;;5017720;28;20124;-71
2022/01/23 01:02:34;;;;;;;29.42;16.00;;;;;;;;;;5017267;28;20045;-71
2022/01/23 01:05:01;;;;;;;27.08;16.85;;;;;;;;;;5016794;28;20465;-71
2022/01/23 01:07:27;;;;;;;30.38;16.80;;;;;;;;;;5017465;28;20034;-71
2022/01/23 01:09:59;;;;;;;37.08;22.58;;;;;;;;;;5017695;28;20050;-71
2022/01/23 01:12:32;;;;;;;31.48;16.35;;;;;;;;;;5017061;28;20088;-71
2022/01/23 01:15:29;;;;;;;30.27;15.18;;;;;;;;;;5017267;28;20057;-71
2022/01/23 01:31:25;;;;;;;75.50;38.70;;;;;;;;;;5016434;28;20088;-71
2022/01/23 01:36:30;;;;;;;25.65;13.85;;;;;;;;;;5016662;28;20044;-71
2022/01/23 01:38:57;;;;;;;27.20;14.27;;;;;;;;;;5016586;28;20107;-71
2022/01/23 01:41:23;;;;;;;24.02;14.60;;;;;;;;;;5016727;28;20099;-71
2022/01/23 01:43:51;;;;;;;28.73;14.30;;;;;;;;;;5016412;28;20030;-70
2022/01/23 01:46:17;;;;;;;21.92;12.45;;;;;;;;;;5016689;28;20026;-71
2022/01/23 01:48:43;;;;;;;29.10;14.18;;;;;;;;;;5016206;28;20033;-71
2022/01/23 01:51:14;;;;;;;26.05;13.57;;;;;;;;;;5016101;28;20037;-71
2022/01/23 01:53:44;;;;;;;;;;;;;;;;;;5017068;28;20137;-71
2022/01/23 01:56:10;;;;;;;25.60;12.87;;;;;;;;;;5016279;28;19905;-71
2022/01/23 02:09:37;;;;;;;19.95;12.63;;;;;;;;;;5015547;28;20025;-71
2022/01/23 02:12:30;;;;;;;24.67;11.90;;;;;;;;;;5015997;28;20041;-71
2022/01/23 02:23:23;;;;;;;19.52;11.30;;;;;;;;;;5015274;28;20041;-71
2022/01/23 02:56:01;;;;;;;15.80;10.20;;;;;;;;;;5012169;28;20117;-71
2022/01/23 02:58:36;;;;;;;15.07;10.27;;;;;;;;;;5002627;28;20042;-71
2022/01/23 03:03:30;;;;;;;31.83;17.15;;;;;;;;;;5014617;28;20033;-71
2022/01/23 03:11:31;;;;;;;17.77;10.18;;;;;;;;;;5014841;28;20042;-70
2022/01/23 03:28:03;;;;;;;14.93;9.50;;;;;;;;;;5014839;28;20038;-71
2022/01/23 03:30:27;;;;;;;13.80;8.90;;;;;;;;;;5014297;28;20513;-71
2022/01/23 03:32:54;;;;;;;14.82;8.15;;;;;;;;;;5014438;28;20037;-71
2022/01/23 03:35:21;;;;;;;14.75;9.00;;;;;;;;;;5014400;28;20037;-71
2022/01/23 03:37:51;;;;;;;16.17;8.23;;;;;;;;;;5013968;28;20037;-71
2022/01/23 03:40:17;;;;;;;17.95;8.18;;;;;;;;;;5025785;28;20049;-71
2022/01/23 03:42:45;;;;;;;17.88;8.77;;;;;;;;;;5033661;28;20041;-71
2022/01/23 03:50:38;;;;;;;14.25;8.32;;;;;;;;;;5034300;28;20037;-71
2022/01/23 03:53:05;;;;;;;20.65;9.43;;;;;;;;;;5033626;28;20041;-71
2022/01/23 03:55:31;;;;;;;16.27;8.43;;;;;;;;;;5033819;28;20384;-71
2022/01/23 03:57:57;;;;;;;14.95;8.35;;;;;;;;;;5032872;28;20034;-71
2022/01/23 04:00:23;;;;;;;13.93;8.07;;;;;;;;;;5033693;28;20103;-70
2022/01/23 04:02:50;;;;;;;18.27;9.00;;;;;;;;;;5033633;28;20033;-71
2022/01/23 04:05:16;;;;;;;17.83;8.68;;;;;;;;;;5033588;28;20034;-71
2022/01/23 04:07:42;;;;;;;14.40;7.82;;;;;;;;;;5033241;28;20064;-71
2022/01/23 04:10:11;;;;;;;12.02;7.30;;;;;;;;;;5034043;28;20120;-71
2022/01/23 04:12:51;;;;;;;15.40;7.53;;;;;;;;;;5033901;28;20110;-71
2022/01/23 04:31:50;;;;;;;13.23;7.45;;;;;;;;;;5037609;28;20040;-71
2022/01/23 04:45:30;;;;;;;13.77;7.40;;;;;;;;;;5037071;28;20032;-71
2022/01/23 05:04:35;;;;;;;14.00;6.75;;;;;;;;;;5035509;28;20029;-71
2022/01/23 05:07:08;;;;;;;14.38;6.40;;;;;;;;;;5037747;28;20116;-71
2022/01/23 05:09:34;;;;;;;11.90;6.97;;;;;;;;;;5037582;28;20052;-70
2022/01/23 05:12:05;;;;;;;14.90;6.88;;;;;;;;;;5037633;28;20407;-70
2022/01/23 05:14:36;;;;;;;12.32;6.55;;;;;;;;;;5036453;28;20519;-70
2022/01/23 05:17:03;;;;;;;12.23;5.95;;;;;;;;;;5036176;28;20044;-70
2022/01/23 05:19:29;;;;;;;10.13;5.60;;;;;;;;;;5036327;28;20396;-70
2022/01/23 05:22:20;;;;;;;8.70;5.60;;;;;;;;;;5036915;28;20069;-70
2022/01/23 05:24:59;;;;;;;11.52;5.70;;;;;;;;;;5036661;28;20030;-71
2022/01/23 05:27:30;;;;;;;10.68;5.32;;;;;;;;;;5036412;28;20429;-70
2022/01/23 05:29:58;;;;;;;11.18;6.13;;;;;;;;;;5034916;28;20071;-71
2022/01/23 05:32:26;;;;;;;13.32;6.43;;;;;;;;;;5036086;28;20033;-71
2022/01/23 05:34:52;;;;;;;8.35;5.28;;;;;;;;;;5036361;28;20029;-71
2022/01/23 05:37:19;;;;;;;9.70;5.88;;;;;;;;;;5036874;28;20033;-70
2022/01/23 05:39:45;;;;;;;11.10;6.00;;;;;;;;;;5036169;28;20387;-71
2022/01/23 05:42:11;;;;;;;9.55;5.35;;;;;;;;;;5035852;28;20504;-70
2022/01/23 05:44:38;;;;;;;9.73;5.32;;;;;;;;;;5035926;28;20504;-71
2022/01/23 05:47:06;;;;;;;8.63;5.20;;;;;;;;;;5035864;28;20134;-71
2022/01/23 05:49:32;;;;;;;9.73;6.18;;;;;;;;;;5036137;28;20040;-70
2022/01/23 05:51:58;;;;;;;9.80;5.65;;;;;;;;;;5036040;28;20029;-70
2022/01/23 05:54:25;;;;;;;10.95;5.97;;;;;;;;;;5035736;28;20091;-70
2022/01/23 05:56:51;;;;;;;11.38;6.00;;;;;;;;;;5035966;28;20033;-71
2022/01/23 05:59:17;;;;;;;14.18;5.63;;;;;;;;;;5036171;28;20034;-70
2022/01/23 06:01:44;;;;;;;9.25;5.78;;;;;;;;;;5036392;28;20484;-70
2022/01/23 06:04:10;;;;;;;14.70;5.85;;;;;;;;;;5035690;28;20065;-70
2022/01/23 06:06:36;;;;;;;10.25;5.50;;;;;;;;;;5035764;28;20041;-70
2022/01/23 06:09:02;;;;;;;10.32;5.78;;;;;;;;;;5036327;28;20033;-71
2022/01/23 06:11:29;;;;;;;9.45;5.38;;;;;;;;;;5035968;28;20044;-70
2022/01/23 06:13:55;;;;;;;12.02;5.55;;;;;;;;;;5035329;28;20119;-71
2022/01/23 06:16:21;;;;;;;11.25;5.70;;;;;;;;;;5035629;28;20033;-70
2022/01/23 06:18:47;;;;;;;11.13;5.70;;;;;;;;;;5035148;28;20487;-71
2022/01/23 06:21:18;;;;;;;9.68;5.05;;;;;;;;;;5035467;28;20041;-71
2022/01/23 06:23:44;;;;;;;;;;;;;;;;;;5035642;28;20025;-71
2022/01/23 06:26:10;;;;;;;6.93;4.95;;;;;;;;;;5035418;28;19912;-71
2022/01/23 06:28:44;;;;;;;11.38;4.47;;;;;;;;;;5035005;28;20033;-71
2022/01/23 06:31:10;;;;;;;9.60;6.28;;;;;;;;;;5035939;28;20220;-71
2022/01/23 06:33:36;;;;;;;7.85;5.38;;;;;;;;;;5035259;28;20060;-71
2022/01/23 06:36:04;;;;;;;9.77;4.97;;;;;;;;;;5035249;28;20033;-71
2022/01/23 06:38:30;;;;;;;9.30;4.82;;;;;;;;;;5034915;28;20037;-71
2022/01/23 06:40:56;;;;;;;7.53;4.55;;;;;;;;;;5033849;28;20431;-71
2022/01/23 06:43:23;;;;;;;10.90;4.82;;;;;;;;;;5034830;28;20091;-71
2022/01/23 06:45:49;;;;;;;8.95;4.78;;;;;;;;;;5035058;28;20063;-71
2022/01/23 06:48:15;;;;;;;8.38;4.88;;;;;;;;;;5034577;28;20484;-71
2022/01/23 06:50:41;;;;;;;8.95;4.82;;;;;;;;;;5035180;28;20143;-71
2022/01/23 06:53:07;;;;;;;9.35;4.63;;;;;;;;;;5034436;28;20033;-71
2022/01/23 06:55:33;;;;;;;8.95;5.40;;;;;;;;;;5034789;28;20377;-71
2022/01/23 06:58:00;;;;;;;8.32;4.93;;;;;;;;;;5034573;28;20116;-71
2022/01/23 07:00:26;;;;;;;7.85;5.18;;;;;;;;;;5034986;28;20056;-71
2022/01/23 07:02:52;;;;;;;8.93;5.95;;;;;;;;;;5034557;28;20104;-71
2022/01/23 07:05:18;;;;;;;12.07;5.30;;;;;;;;;;5034316;28;20037;-71
2022/01/23 07:07:44;;;;;;;9.90;5.60;;;;;;;;;;5034740;28;20045;-71
2022/01/23 07:10:10;;;;;;;10.05;4.82;;;;;;;;;;5034754;28;20484;-71
2022/01/23 07:12:36;;;;;;;9.65;4.82;;;;;;;;;;5034650;28;20095;-70
2022/01/23 07:15:03;;;;;;;11.40;5.38;;;;;;;;;;5034374;28;20554;-71
2022/01/23 07:17:29;;;;;;;8.80;5.28;;;;;;;;;;5034324;28;20499;-71
2022/01/23 07:19:55;;;;;;;8.75;4.82;;;;;;;;;;5034715;28;20051;-71
2022/01/23 07:22:21;;;;;;;8.63;4.90;;;;;;;;;;5034826;28;20038;-71
2022/01/23 07:24:47;;;;;;;8.93;5.13;;;;;;;;;;5034534;28;20112;-71
2022/01/23 07:27:18;;;;;;;9.45;4.47;;;;;;;;;;5033751;28;20041;-71
2022/01/23 07:29:45;;;;;;;;;;;;;;;;;;5020999;28;20037;-71
2022/01/23 07:32:12;;;;;;;11.80;5.30;;;;;;;;;;5014628;28;20352;-71
2022/01/23 07:34:38;;;;;;;7.15;4.30;;;;;;;;;;5014150;28;20164;-71
2022/01/23 07:37:04;;;;;;;9.07;4.80;;;;;;;;;;5014369;28;20492;-71
2022/01/23 07:39:31;;;;;;;11.60;4.75;;;;;;;;;;5014377;28;20034;-71
2022/01/23 07:41:57;;;;;;;10.45;5.88;;;;;;;;;;5014401;28;20365;-71
2022/01/23 07:44:23;;;;;;;9.38;5.60;;;;;;;;;;5014309;28;20044;-71
2022/01/23 07:46:51;;;;;;;11.25;5.20;;;;;;;;;;5014941;28;20184;-71
2022/01/23 07:49:18;;;;;;;9.80;6.30;;;;;;;;;;5014782;28;20066;-71
2022/01/23 07:51:44;;;;;;;11.60;5.57;;;;;;;;;;5014449;28;20059;-71
2022/01/23 07:54:10;;;;;;;10.15;5.50;;;;;;;;;;5014413;28;20036;-71
2022/01/23 07:56:38;;;;;;;11.65;5.78;;;;;;;;;;5015163;28;20036;-71
2022/01/23 07:59:05;;;;;;;10.80;5.68;;;;;;;;;;5025451;28;20033;-71
2022/01/23 08:01:31;;;;;;;11.95;6.43;;;;;;;;;;5014911;28;20046;-71
2022/01/23 08:03:58;;;;;;;12.50;6.03;;;;;;;;;;5014747;28;20060;-71
2022/01/23 08:06:28;;;;;;;11.75;6.10;;;;;;;;;;5018158;28;20034;-71
2022/01/23 08:08:58;;;;;;;16.23;6.82;;;;;;;;;;5028837;28;20022;-71
2022/01/23 08:11:24;;;;;;;17.02;6.95;;;;;;;;;;5018752;28;20049;-71
2022/01/23 08:13:50;;;;;;;12.32;6.50;;;;;;;;;;5037182;28;20503;-71
2022/01/23 08:16:16;;;;;;;10.85;6.55;;;;;;;;;;5037020;28;20041;-71
2022/01/23 08:18:42;;;;;;;11.55;6.25;;;;;;;;;;5027086;28;20033;-71
2022/01/23 08:21:08;;;;;;;9.05;5.63;;;;;;;;;;5017610;28;20102;-71
2022/01/23 08:23:38;;;;;;;9.95;5.80;;;;;;;;;;5017895;28;20038;-71
2022/01/23 08:26:04;;;;;;;11.57;6.00;;;;;;;;;;5018237;28;20132;-71
2022/01/23 08:28:30;;;;;;;13.10;6.07;;;;;;;;;;5017594;28;20041;-71
2022/01/23 08:30:56;;;;;;;11.25;6.53;;;;;;;;;;5027717;28;20496;-72
2022/01/23 08:33:24;;;;;;;13.88;6.95;;;;;;;;;;5032065;28;20037;-71
2022/01/23 08:35:52;;;;;;;11.02;6.60;;;;;;;;;;5017835;28;20037;-71
2022/01/23 08:38:18;;;;;;;8.13;6.00;;;;;;;;;;5017379;28;20041;-71
2022/01/23 08:43:11;;;;;;;14.05;5.97;;;;;;;;;;5017540;28;20034;-71
2022/01/23 08:45:38;;;;;;;9.65;5.13;;;;;;;;;;5017560;28;20184;-71
2022/01/23 08:48:04;;;;;;;9.13;5.97;;;;;;;;;;5017414;28;20109;-71
2022/01/23 08:50:31;;;;;;;10.13;6.32;;;;;;;;;;5017483;28;20068;-71
2022/01/23 08:52:57;;;;;;;9.95;5.80;;;;;;;;;;5017295;28;20038;-73
2022/01/23 08:55:23;;;;;;;8.80;5.15;;;;;;;;;;5017542;28;20061;-71
2022/01/23 08:57:49;;;;;;;7.43;5.15;;;;;;;;;;5017247;28;20141;-71
2022/01/23 09:00:18;;;;;;;6.05;3.63;;;;;;;;;;5016920;28;20485;-71
2022/01/23 09:02:44;;;;;;;6.55;3.15;;;;;;;;;;5017349;28;20076;-71
2022/01/23 09:05:10;;;;;;;5.55;3.20;;;;;;;;;;5016748;28;20100;-71
2022/01/23 09:07:37;;;;;;;6.07;2.90;;;;;;;;;;5017190;28;20040;-71
2022/01/23 09:10:04;;;;;;;5.07;3.13;;;;;;;;;;5016963;28;20504;-71
2022/01/23 09:15:07;;;;;;;5.22;3.90;;;;;;;;;;5015874;28;20088;-71
2022/01/23 09:17:33;;;;;;;7.45;3.95;;;;;;;;;;5020292;28;20548;-71
2022/01/23 09:19:59;;;;;;;9.35;3.35;;;;;;;;;;5032805;28;20523;-71
2022/01/23 09:22:30;;;;;;;6.15;3.10;;;;;;;;;;5021946;28;20077;-69
2022/01/23 09:24:58;;;;;;;7.22;3.88;;;;;;;;;;4999176;28;20042;-71
2022/01/23 09:27:24;;;;;;;7.57;4.38;;;;;;;;;;5016184;28;20049;-74
2022/01/23 09:29:53;;;;;;;6.65;4.75;;;;;;;;;;5014185;28;20127;-73
2022/01/23 09:32:20;;;;;;;7.30;3.88;;;;;;;;;;5012946;28;20045;-73
2022/01/23 09:34:48;;;;;;;7.18;4.05;;;;;;;;;;5012663;28;20034;-73
2022/01/23 09:37:15;;;;;;;5.63;3.85;;;;;;;;;;5011711;28;20049;-75
2022/01/23 09:39:42;;;;;;;5.72;3.60;;;;;;;;;;5014852;28;20175;-74
2022/01/23 09:42:18;;;;;;;7.85;3.80;;;;;;;;;;5022116;28;20034;-72
2022/01/23 09:44:53;;;;;;;4.38;3.22;;;;;;;;;;5021324;28;20200;-73
2022/01/23 09:47:20;;;;;;;8.90;3.95;;;;;;;;;;5019286;28;20559;-73
2022/01/23 09:49:48;;;;;;;5.32;3.58;;;;;;;;;;5015271;28;20037;-72
2022/01/23 09:52:14;;;;;;;5.97;3.88;;;;;;;;;;5036093;28;20554;-72
2022/01/23 09:54:42;;;;;;;6.50;3.97;;;;;;;;;;5035789;28;20033;-72
2022/01/23 09:57:09;;;;;;;6.95;3.60;;;;;;;;;;5031649;28;20516;-73
2022/01/23 09:59:36;;;;;;;7.97;4.32;;;;;;;;;;5015570;28;20044;-73
2022/01/23 10:02:03;;;;;;;5.18;3.75;;;;;;;;;;5032562;28;20120;-75
2022/01/23 10:04:29;;;;;;;6.03;3.65;;;;;;;;;;5033973;28;20116;-74
2022/01/23 10:06:56;;;;;;;6.45;3.08;;;;;;;;;;5017060;28;20036;-73
2022/01/23 10:09:24;;;;;;;6.15;3.35;;;;;;;;;;5024328;28;20034;-73
2022/01/23 10:11:50;;;;;;;5.70;3.50;;;;;;;;;;5035255;28;20059;-73
2022/01/23 10:14:19;;;;;;;4.53;3.17;;;;;;;;;;5025000;28;20092;-73
2022/01/23 10:16:47;;;;;;;4.32;2.72;;;;;;;;;;5015581;28;20124;-73
2022/01/23 10:19:15;;;;;;;4.50;3.17;;;;;;;;;;5015342;28;20054;-74
2022/01/23 10:21:43;;;;;;;5.50;3.78;;;;;;;;;;5015189;28;20071;-74
2022/01/23 10:24:11;;;;;;;8.65;5.63;;;;;;;;;;5024995;28;20045;-74
2022/01/23 10:26:50;;;;;;;4.85;3.22;;;;;;;;;;5033365;28;20372;-73
2022/01/23 10:29:33;;;;;;;4.75;3.30;;;;;;;;;;5033279;28;20079;-73
2022/01/23 10:32:11;;;;;;;6.32;3.13;;;;;;;;;;5034824;28;20039;-73
2022/01/23 10:34:43;;;;;;;4.97;2.75;;;;;;;;;;5034913;28;20038;-73
2022/01/23 10:37:09;;;;;;;4.25;3.05;;;;;;;;;;4994379;28;20444;-74
2022/01/23 10:39:41;;;;;;;5.45;3.30;;;;;;;;;;5028866;28;20030;-73
2022/01/23 10:42:50;;;;;;;4.82;3.45;;;;;;;;;;5023251;28;20033;-73
2022/01/23 10:50:39;;;;;;;4.78;3.40;;;;;;;;;;5033513;28;20037;-73
2022/01/23 10:53:05;;;;;;;3.45;2.42;;;;;;;;;;5034044;28;20041;-72
2022/01/23 10:55:34;;;;;;;2.90;2.63;;;;;;;;;;5014599;28;20025;-72
2022/01/23 10:58:02;;;;;;;4.50;2.38;;;;;;;;;;5011908;28;20063;-73
2022/01/23 11:00:34;;;;;;;2.50;2.05;;;;;;;;;;5034270;28;20067;-73
2022/01/23 11:03:04;;;;;;;4.63;2.60;;;;;;;;;;5032198;28;20548;-73
2022/01/23 11:05:32;;;;;;;3.23;2.00;;;;;;;;;;5033373;28;20029;-75
2022/01/23 11:07:58;;;;;;;4.28;2.00;;;;;;;;;;5031910;28;20120;-73
2022/01/23 11:10:24;;;;;;;3.80;1.98;;;;;;;;;;5032073;28;20040;-73
2022/01/23 11:18:05;;;;;;;2.10;1.40;;;;;;;;;;5030520;28;20515;-73
2022/01/23 11:20:36;;;;;;;3.17;1.60;;;;;;;;;;5018920;28;20080;-73
2022/01/23 11:23:04;;;;;;;3.25;1.80;;;;;;;;;;5013993;28;20050;-73
2022/01/23 11:25:30;;;;;;;1.75;1.58;;;;;;;;;;5013044;28;20038;-73
2022/01/23 11:28:05;;;;;;;1.98;1.30;;;;;;;;;;5013512;28;20044;-72
2022/01/23 11:30:41;;;;;;;4.25;1.55;;;;;;;;;;5013953;28;20038;-71
2022/01/23 11:33:10;;;;;;;4.72;1.63;;;;;;;;;;5021886;28;20037;-71
2022/01/23 11:35:42;;;;;;;2.58;1.20;;;;;;;;;;5032505;28;20075;-72
2022/01/23 11:38:14;;;;;;;3.30;1.38;;;;;;;;;;5024844;28;20153;-73
2022/01/23 11:53:57;;;;;;;4.60;1.65;;;;;;;;;;5015373;28;20477;-73
2022/01/23 11:56:30;;;;;;;2.58;1.42;;;;;;;;;;5017637;28;20639;-73
2022/01/23 11:59:22;;;;;;;2.25;1.30;;;;;;;;;;5016835;28;20041;-73
2022/01/23 12:02:10;;;;;;;2.30;1.48;;;;;;;;;;5016151;28;20586;-73
2022/01/23 12:04:36;;;;;;;4.75;1.42;;;;;;;;;;5007501;28;20034;-73
2022/01/23 12:07:12;;;;;;;3.45;2.25;;;;;;;;;;5006244;28;20110;-72
2022/01/23 12:09:39;;;;;;;3.60;1.65;;;;;;;;;;5003566;28;20040;-73
2022/01/23 12:12:51;;;;;;;2.70;1.38;;;;;;;;;;4999818;28;20038;-73
2022/01/23 12:18:14;;;;;;;4.25;1.73;;;;;;;;;;5007054;28;20227;-71
2022/01/23 12:20:41;;;;;;;3.53;1.73;;;;;;;;;;5017415;28;20037;-72
2022/01/23 12:23:08;;;;;;;4.32;1.35;;;;;;;;;;5016829;28;20048;-73
2022/01/23 12:26:00;;;;;;;1.20;1.10;;;;;;;;;;5017173;28;20053;-73
2022/01/23 12:28:28;;;;;;;2.40;1.30;;;;;;;;;;4995615;28;20053;-73
2022/01/23 12:30:56;;;;;;;3.17;1.25;;;;;;;;;;4988586;28;20120;-72
2022/01/23 12:33:32;;;;;;;10.50;4.82;;;;;;;;;;5003813;28;20145;-74
2022/01/23 12:36:08;;;;;;;16.23;10.95;;;;;;;;;;5014204;28;20424;-72
2022/01/23 12:38:38;;;;;;;3.17;1.83;;;;;;;;;;5014869;28;20083;-71
2022/01/23 12:41:23;;;;;;;1.50;1.00;;;;;;;;;;5015622;28;20085;-73
2022/01/23 12:44:28;;;;;;;3.80;1.40;;;;;;;;;;5014939;28;20527;-72
2022/01/23 12:46:56;;;;;;;1.45;1.17;;;;;;;;;;5013058;28;20041;-72
2022/01/23 12:49:23;;;;;;;2.88;1.38;;;;;;;;;;5014402;28;20041;-71
2022/01/23 12:52:08;;;;;;;1.60;0.93;;;;;;;;;;5011510;28;20642;-73
2022/01/23 12:54:36;;;;;;;2.28;1.20;;;;;;;;;;4985872;28;20041;-73
2022/01/23 12:57:10;;;;;;;2.30;1.02;;;;;;;;;;4992136;28;20072;-74
2022/01/23 12:59:37;;;;;;;4.70;1.20;;;;;;;;;;4995412;28;20034;-73
2022/01/23 13:02:10;;;;;;;4.22;1.10;;;;;;;;;;4995461;28;20038;-74
2022/01/23 13:04:41;;;;;;;2.35;1.20;;;;;;;;;;5012962;28;20034;-71
2022/01/23 13:07:15;;;;;;;1.90;1.15;;;;;;;;;;5018696;28;20033;-72
2022/01/23 13:17:41;;;;;;;2.85;1.00;;;;;;;;;;5023667;28;20076;-72
2022/01/23 13:30:35;;;;;;;3.95;1.20;;;;;;;;;;5027616;28;20118;-72
2022/01/23 13:33:08;;;;;;;1.40;1.00;;;;;;;;;;5013937;28;20034;-72
2022/01/23 13:35:39;;;;;;;2.05;1.23;;;;;;;;;;4995874;28;20092;-72
2022/01/23 13:38:10;;;;;;;4.55;3.00;;;;;;;;;;5008584;28;20042;-72
2022/01/23 13:40:41;;;;;;;1.88;1.15;;;;;;;;;;5016893;28;20068;-72
2022/01/23 13:59:16;;;;;;;5.20;1.42;;;;;;;;;;5010638;28;20025;-72
2022/01/23 14:01:51;;;;;;;3.22;2.30;;;;;;;;;;5010334;28;20045;-72
2022/01/23 14:04:18;;;;;;;2.78;1.00;;;;;;;;;;5011063;28;20133;-72
2022/01/23 14:06:45;;;;;;;4.07;1.55;;;;;;;;;;5011761;28;20045;-72
2022/01/23 14:09:12;;;;;;;4.10;2.90;;;;;;;;;;5013315;28;20054;-72
2022/01/23 14:11:40;;;;;;;3.88;1.60;;;;;;;;;;5012484;28;20061;-73
2022/01/23 14:14:20;;;;;;;7.65;3.97;;;;;;;;;;5021386;28;20088;-73
2022/01/23 14:16:48;;;;;;;8.38;4.78;;;;;;;;;;5018417;28;20041;-72
2022/01/23 14:19:21;;;;;;;5.07;3.13;;;;;;;;;;5015334;28;20057;-72
2022/01/23 14:21:53;;;;;;;4.10;2.03;;;;;;;;;;5016427;28;20041;-71
2022/01/23 14:24:25;;;;;;;6.05;1.85;;;;;;;;;;5011410;28;20528;-70
2022/01/23 14:27:02;;;;;;;2.30;1.52;;;;;;;;;;5011881;28;20049;-70
2022/01/23 14:29:31;;;;;;;4.85;2.63;;;;;;;;;;5011271;28;20107;-70
2022/01/23 14:32:20;;;;;;;5.57;1.80;;;;;;;;;;5011954;28;20121;-70
2022/01/23 14:34:47;;;;;;;3.72;1.70;;;;;;;;;;5006275;28;20543;-70
2022/01/23 14:37:15;;;;;;;3.45;1.70;;;;;;;;;;5012791;28;20034;-70
2022/01/23 14:39:42;;;;;;;3.63;2.28;;;;;;;;;;5023686;28;20080;-70
2022/01/23 14:42:10;;;;;;;2.92;1.60;;;;;;;;;;5015219;28;20532;-70
2022/01/23 14:44:37;;;;;;;3.83;1.90;;;;;;;;;;5013186;28;20049;-70
2022/01/23 14:47:03;;;;;;;4.15;1.70;;;;;;;;;;5014353;28;20022;-70
2022/01/23 14:49:31;;;;;;;4.97;2.38;;;;;;;;;;5008267;28;20116;-70
2022/01/23 14:52:00;;;;;;;4.97;2.80;;;;;;;;;;5011811;28;20029;-71
2022/01/23 14:54:30;;;;;;;10.25;4.55;;;;;;;;;;5010183;28;20037;-71
2022/01/23 14:57:02;;;;;;;4.07;1.88;;;;;;;;;;5011058;28;20037;-72
2022/01/23 14:59:30;;;;;;;3.70;2.00;;;;;;;;;;5011951;28;20044;-72
2022/01/23 15:01:57;;;;;;;4.53;2.03;;;;;;;;;;5010062;28;20044;-72
2022/01/23 15:04:27;;;;;;;2.35;1.55;;;;;;;;;;5010990;28;20073;-72
2022/01/23 15:06:54;;;;;;;4.25;1.80;;;;;;;;;;5011387;28;20036;-71
2022/01/23 15:09:24;;;;;;;10.30;3.80;;;;;;;;;;5005580;28;20061;-72
2022/01/23 15:11:52;;;;;;;3.08;2.03;;;;;;;;;;5012460;28;20040;-71
2022/01/23 15:14:19;;;;;;;2.92;1.63;;;;;;;;;;5010457;28;20135;-71
2022/01/23 15:16:48;;;;;;;3.00;2.00;;;;;;;;;;5012795;28;20084;-71
2022/01/23 15:19:14;;;;;;;5.80;4.10;;;;;;;;;;5011745;28;20038;-71
2022/01/23 15:21:41;;;;;;;2.83;1.80;;;;;;;;;;5011736;28;20061;-71
2022/01/23 15:24:07;;;;;;;5.97;1.70;;;;;;;;;;5011398;28;20054;-71
2022/01/23 15:26:39;;;;;;;3.92;1.77;;;;;;;;;;5012045;28;20064;-71
2022/01/23 15:29:06;;;;;;;8.23;4.72;;;;;;;;;;5012361;28;20520;-71
2022/01/23 15:31:38;;;;;;;3.00;2.15;;;;;;;;;;5012154;28;20145;-71
2022/01/23 15:34:05;;;;;;;6.88;4.47;;;;;;;;;;5011174;28;20048;-72
2022/01/23 15:36:33;;;;;;;5.63;2.75;;;;;;;;;;5012836;28;20088;-72
2022/01/23 15:39:05;;;;;;;7.57;5.45;;;;;;;;;;5010158;28;20456;-72
2022/01/23 15:41:31;;;;;;;3.17;2.35;;;;;;;;;;5010993;28;20121;-72
2022/01/23 15:43:58;;;;;;;3.85;2.10;;;;;;;;;;5012568;28;20136;-73
2022/01/23 15:46:25;;;;;;;2.80;2.00;;;;;;;;;;5010614;28;20424;-74
2022/01/23 15:48:52;;;;;;;5.43;3.58;;;;;;;;;;5011803;28;20273;-75
2022/01/23 15:51:19;;;;;;;4.65;4.13;;;;;;;;;;5012530;28;20041;-72
2022/01/23 15:53:45;;;;;;;3.63;2.38;;;;;;;;;;5009484;28;20045;-73
2022/01/23 15:56:11;;;;;;;3.22;1.70;;;;;;;;;;5010234;28;20452;-72
2022/01/23 15:58:38;;;;;;;3.88;1.90;;;;;;;;;;5009352;28;20132;-72
2022/01/23 16:01:04;;;;;;;2.45;1.50;;;;;;;;;;5009826;28;20489;-72
2022/01/23 16:03:31;;;;;;;2.15;1.45;;;;;;;;;;5009735;28;20092;-72
2022/01/23 16:05:58;;;;;;;2.60;1.67;;;;;;;;;;5009505;28;20042;-73
2022/01/23 16:08:25;;;;;;;2.97;1.70;;;;;;;;;;5010173;28;20030;-73
2022/01/23 16:10:51;;;;;;;4.80;2.35;;;;;;;;;;5010930;28;20057;-73
2022/01/23 16:13:18;;;;;;;6.53;2.13;;;;;;;;;;5010167;28;20044;-73
2022/01/23 16:15:44;;;;;;;3.65;2.15;;;;;;;;;;5010326;28;20048;-72
2022/01/23 16:18:11;;;;;;;2.85;1.42;;;;;;;;;;5009875;28;20527;-72
2022/01/23 16:20:38;;;;;;;3.95;2.38;;;;;;;;;;5004840;28;20081;-73
2022/01/23 16:23:05;;;;;;;4.97;2.03;;;;;;;;;;5004552;28;20496;-76
2022/01/23 16:25:31;;;;;;;3.03;2.03;;;;;;;;;;5013142;28;20033;-73
2022/01/23 16:27:57;;;;;;;8.25;5.13;;;;;;;;;;5016005;28;20065;-72
2022/01/23 16:30:24;;;;;;;16.45;9.25;;;;;;;;;;5015086;28;20545;-71
2022/01/23 16:32:50;;;;;;;52.10;36.13;;;;;;;;;;4998418;28;20534;-72
2022/01/23 16:35:19;;;;;;;55.78;42.33;;;;;;;;;;5010804;28;20568;-72
2022/01/23 16:37:46;;;;;;;13.05;10.65;;;;;;;;;;5014598;28;20025;-72
2022/01/23 16:40:12;;;;;;;27.65;16.63;;;;;;;;;;5015119;28;20124;-73
2022/01/23 16:42:38;;;;;;;66.13;42.67;;;;;;;;;;5015722;28;20034;-73
2022/01/23 16:45:05;;;;;;;639.28;447.73;;;;;;;;;;5014530;28;20099;-71
2022/01/23 16:47:32;;;;;;;129.73;84.72;;;;;;;;;;5015414;28;20116;-73
2022/01/23 16:49:58;;;;;;;29.73;20.27;;;;;;;;;;5014309;28;20041;-72
2022/01/23 16:52:24;;;;;;;29.70;19.75;;;;;;;;;;5015814;28;20042;-72
2022/01/23 16:54:50;;;;;;;20.80;12.98;;;;;;;;;;5015309;28;20042;-72
2022/01/23 16:57:18;;;;;;;64.53;37.63;;;;;;;;;;5014813;28;20034;-71
2022/01/23 16:59:44;;;;;;;62.83;45.38;;;;;;;;;;5013420;28;20050;-72
2022/01/23 17:02:10;;;;;;;20.50;12.80;;;;;;;;;;5014832;28;20103;-73
2022/01/23 17:04:36;;;;;;;47.65;27.23;;;;;;;;;;5014754;28;20034;-72
2022/01/23 17:07:02;;;;;;;22.90;14.60;;;;;;;;;;5014865;28;20550;-72
2022/01/23 17:09:30;;;;;;;17.65;15.32;;;;;;;;;;5014615;28;20033;-71
2022/01/23 17:11:59;;;;;;;13.15;8.43;;;;;;;;;;5015066;28;20082;-71
2022/01/23 17:14:25;;;;;;;11.77;7.72;;;;;;;;;;5014830;28;20057;-72
2022/01/23 17:16:52;;;;;;;15.02;9.55;;;;;;;;;;5014741;28;20045;-72
2022/01/23 17:19:18;;;;;;;17.73;11.07;;;;;;;;;;5012743;28;20041;-72
2022/01/23 17:21:44;;;;;;;18.88;10.80;;;;;;;;;;5015069;28;20049;-71
2022/01/23 17:24:10;;;;;;;17.25;10.48;;;;;;;;;;5014515;28;20073;-72
2022/01/23 17:26:37;;;;;;;17.05;9.38;;;;;;;;;;5013806;28;20033;-73
2022/01/23 17:29:03;;;;;;;13.15;7.10;;;;;;;;;;5013375;28;20076;-72
2022/01/23 17:31:29;;;;;;;21.75;11.40;;;;;;;;;;5014687;28;20488;-73
2022/01/23 17:33:55;;;;;;;19.85;10.93;;;;;;;;;;5016739;28;20083;-73
2022/01/23 17:36:22;;;;;;;22.65;9.95;;;;;;;;;;5016219;28;20038;-73
2022/01/23 17:38:48;;;;;;;16.83;8.45;;;;;;;;;;5016879;28;20034;-74
2022/01/23 17:41:16;;;;;;;17.20;8.13;;;;;;;;;;5016403;28;20484;-73
2022/01/23 17:43:42;;;;;;;12.07;7.25;;;;;;;;;;5016280;28;20033;-72
2022/01/23 17:46:11;;;;;;;18.60;11.10;;;;;;;;;;5015679;28;20064;-73
2022/01/23 17:51:24;;;;;;;18.48;10.35;;;;;;;;;;5016354;28;20092;-73
2022/01/23 17:53:51;;;;;;;11.32;6.63;;;;;;;;;;5014991;28;20112;-73
2022/01/23 17:56:17;;;;;;;19.52;10.70;;;;;;;;;;5015865;28;20034;-72
2022/01/23 17:58:43;;;;;;;18.88;11.98;;;;;;;;;;5016492;28;20030;-73
2022/01/23 18:01:10;;;;;;;17.20;10.25;;;;;;;;;;5015919;28;20549;-73
2022/01/23 18:03:39;;;;;;;23.00;12.30;;;;;;;;;;5012147;28;20045;-74
2022/01/23 18:06:10;;;;;;;58.05;48.45;;;;;;;;;;5015669;28;20042;-73
2022/01/23 18:08:36;;;;;;;23.20;16.55;;;;;;;;;;5015432;28;20358;-72
2022/01/23 18:11:02;;;;;;;36.78;20.77;;;;;;;;;;5015812;28;20054;-72
2022/01/23 18:13:29;;;;;;;31.25;19.15;;;;;;;;;;5010085;28;20044;-74
2022/01/23 18:15:56;;;;;;;24.52;15.68;;;;;;;;;;5006673;28;20044;-74
2022/01/23 18:18:22;;;;;;;26.60;14.35;;;;;;;;;;4994642;28;20125;-74
2022/01/23 18:20:49;;;;;;;21.90;13.52;;;;;;;;;;4994307;28;20452;-74
2022/01/23 18:23:15;;;;;;;22.80;14.45;;;;;;;;;;5007811;28;20125;-75